sensor_id;sensor_type;location;lat;lon;timestamp;temperature;humidity
39095;DHT22;24840;47.508;19.376;2023-02-15T00:00:14;-2.30;99.90
39095;DHT22;24840;47.508;19.376;2023-02-15T00:02:40;-2.30;99.90
39095;DHT22;24840;47.508;19.376;2023-02-15T00:05:06;-2.30;99.90
39095;DHT22;24840;47.508;19.376;2023-02-15T00:07:32;-2.20;99.90
39095;DHT22;24840;47.508;19.376;2023-02-15T00:09:58;-2.20;99.90
39095;DHT22;24840;47.508;19.376;2023-02-15T00:12:23;-2.20;99.90
39095;DHT22;24840;47.508;19.376;2023-02-15T00:14:49;-2.20;99.90
39095;DHT22;24840;47.508;19.376;2023-02-15T00:17:15;-2.20;99.90
39095;DHT22;24840;47.508;19.376;2023-02-15T00:19:41;-2.20;99.90
39095;DHT22;24840;47.508;19.376;2023-02-15T00:22:07;-2.30;99.90
39095;DHT22;24840;47.508;19.376;2023-02-15T00:24:33;-2.30;99.90
39095;DHT22;24840;47.508;19.376;2023-02-15T00:26:58;-2.30;99.90
39095;DHT22;24840;47.508;19.376;2023-02-15T00:29:24;-2.30;99.90
39095;DHT22;24840;47.508;19.376;2023-02-15T00:31:50;-2.40;99.90
39095;DHT22;24840;47.508;19.376;2023-02-15T00:34:19;-2.40;99.90
39095;DHT22;24840;47.508;19.376;2023-02-15T00:36:46;-2.40;99.90
39095;DHT22;24840;47.508;19.376;2023-02-15T00:39:12;-2.60;99.90
39095;DHT22;24840;47.508;19.376;2023-02-15T00:41:38;-2.60;99.90
39095;DHT22;24840;47.508;19.376;2023-02-15T00:44:04;-2.70;99.90
39095;DHT22;24840;47.508;19.376;2023-02-15T00:46:31;-2.70;99.90
39095;DHT22;24840;47.508;19.376;2023-02-15T00:48:56;-2.60;99.90
39095;DHT22;24840;47.508;19.376;2023-02-15T00:51:22;-2.60;99.90
39095;DHT22;24840;47.508;19.376;2023-02-15T00:53:48;-2.60;99.90
39095;DHT22;24840;47.508;19.376;2023-02-15T00:56:15;-2.60;99.90
39095;DHT22;24840;47.508;19.376;2023-02-15T00:58:41;-2.60;99.90
39095;DHT22;24840;47.508;19.376;2023-02-15T01:01:10;-2.60;99.90
39095;DHT22;24840;47.508;19.376;2023-02-15T01:03:36;-2.70;99.90
39095;DHT22;24840;47.508;19.376;2023-02-15T01:06:02;-2.80;99.90
39095;DHT22;24840;47.508;19.376;2023-02-15T01:08:28;-2.80;99.90
39095;DHT22;24840;47.508;19.376;2023-02-15T01:10:54;-2.70;99.90
39095;DHT22;24840;47.508;19.376;2023-02-15T01:13:20;-2.70;99.90
39095;DHT22;24840;47.508;19.376;2023-02-15T01:15:54;-2.60;99.90
39095;DHT22;24840;47.508;19.376;2023-02-15T01:18:21;-2.90;99.90
39095;DHT22;24840;47.508;19.376;2023-02-15T01:20:47;-3.00;99.90
39095;DHT22;24840;47.508;19.376;2023-02-15T01:23:13;-2.90;99.90
39095;DHT22;24840;47.508;19.376;2023-02-15T01:25:39;-2.80;99.90
39095;DHT22;24840;47.508;19.376;2023-02-15T01:28:05;-2.70;99.90
39095;DHT22;24840;47.508;19.376;2023-02-15T01:30:31;-2.80;99.90
39095;DHT22;24840;47.508;19.376;2023-02-15T01:32:57;-2.90;99.90
39095;DHT22;24840;47.508;19.376;2023-02-15T01:35:23;-2.80;99.90
39095;DHT22;24840;47.508;19.376;2023-02-15T01:37:49;-2.80;99.90
39095;DHT22;24840;47.508;19.376;2023-02-15T01:40:17;-2.70;99.90
39095;DHT22;24840;47.508;19.376;2023-02-15T01:42:43;-2.90;99.90
39095;DHT22;24840;47.508;19.376;2023-02-15T01:45:20;-3.00;99.90
39095;DHT22;24840;47.508;19.376;2023-02-15T01:53:33;-3.10;99.90
39095;DHT22;24840;47.508;19.376;2023-02-15T01:56:08;-3.00;99.90
39095;DHT22;24840;47.508;19.376;2023-02-15T01:58:35;-2.90;99.90
39095;DHT22;24840;47.508;19.376;2023-02-15T02:01:02;-2.90;99.90
39095;DHT22;24840;47.508;19.376;2023-02-15T02:06:18;-3.00;99.90
39095;DHT22;24840;47.508;19.376;2023-02-15T02:08:44;-3.00;99.90
39095;DHT22;24840;47.508;19.376;2023-02-15T02:11:12;-3.00;99.90
39095;DHT22;24840;47.508;19.376;2023-02-15T02:13:40;-3.10;99.90
39095;DHT22;24840;47.508;19.376;2023-02-15T02:19:17;-3.10;99.90
39095;DHT22;24840;47.508;19.376;2023-02-15T02:22:32;-3.10;99.90
39095;DHT22;24840;47.508;19.376;2023-02-15T02:27:50;-3.10;99.90
39095;DHT22;24840;47.508;19.376;2023-02-15T02:33:38;-3.10;99.90
39095;DHT22;24840;47.508;19.376;2023-02-15T02:39:21;-3.30;99.90
39095;DHT22;24840;47.508;19.376;2023-02-15T02:44:40;-3.20;99.90
39095;DHT22;24840;47.508;19.376;2023-02-15T02:49:46;-3.30;99.90
39095;DHT22;24840;47.508;19.376;2023-02-15T02:52:35;-3.40;99.90
39095;DHT22;24840;47.508;19.376;2023-02-15T02:55:03;-3.50;99.90
39095;DHT22;24840;47.508;19.376;2023-02-15T02:57:31;-3.40;99.90
39095;DHT22;24840;47.508;19.376;2023-02-15T02:59:59;-3.50;99.90
39095;DHT22;24840;47.508;19.376;2023-02-15T03:02:32;-3.50;99.90
39095;DHT22;24840;47.508;19.376;2023-02-15T03:05:01;-3.60;99.90
39095;DHT22;24840;47.508;19.376;2023-02-15T03:07:30;-3.50;99.90
39095;DHT22;24840;47.508;19.376;2023-02-15T03:10:02;-3.50;99.90
39095;DHT22;24840;47.508;19.376;2023-02-15T03:12:32;-3.50;99.90
39095;DHT22;24840;47.508;19.376;2023-02-15T03:15:09;-3.40;99.90
39095;DHT22;24840;47.508;19.376;2023-02-15T03:17:40;-3.40;99.90
39095;DHT22;24840;47.508;19.376;2023-02-15T03:20:18;-3.50;99.90
39095;DHT22;24840;47.508;19.376;2023-02-15T03:22:51;-3.50;99.90
39095;DHT22;24840;47.508;19.376;2023-02-15T03:25:22;-3.60;99.90
39095;DHT22;24840;47.508;19.376;2023-02-15T03:28:09;-3.50;99.90
39095;DHT22;24840;47.508;19.376;2023-02-15T03:30:38;-3.50;99.90
39095;DHT22;24840;47.508;19.376;2023-02-15T03:33:05;-3.60;99.90
39095;DHT22;24840;47.508;19.376;2023-02-15T03:35:44;-3.50;99.90
39095;DHT22;24840;47.508;19.376;2023-02-15T03:38:19;-3.60;99.90
39095;DHT22;24840;47.508;19.376;2023-02-15T03:40:45;-3.80;99.90
39095;DHT22;24840;47.508;19.376;2023-02-15T03:43:41;-3.70;99.90
39095;DHT22;24840;47.508;19.376;2023-02-15T03:46:49;-3.60;99.90
39095;DHT22;24840;47.508;19.376;2023-02-15T03:49:12;-3.60;99.90
39095;DHT22;24840;47.508;19.376;2023-02-15T03:51:40;-3.60;99.90
39095;DHT22;24840;47.508;19.376;2023-02-15T03:54:15;-3.70;99.90
39095;DHT22;24840;47.508;19.376;2023-02-15T03:57:03;-3.70;99.90
39095;DHT22;24840;47.508;19.376;2023-02-15T03:59:48;-3.60;99.90
39095;DHT22;24840;47.508;19.376;2023-02-15T04:05:29;-3.70;99.90
39095;DHT22;24840;47.508;19.376;2023-02-15T04:07:55;-3.70;99.90
39095;DHT22;24840;47.508;19.376;2023-02-15T04:10:21;-3.70;99.90
39095;DHT22;24840;47.508;19.376;2023-02-15T04:13:05;-3.70;99.90
39095;DHT22;24840;47.508;19.376;2023-02-15T04:15:31;-3.80;99.90
39095;DHT22;24840;47.508;19.376;2023-02-15T04:18:15;-3.80;99.90
39095;DHT22;24840;47.508;19.376;2023-02-15T04:20:44;-3.80;99.90
39095;DHT22;24840;47.508;19.376;2023-02-15T04:23:28;-3.80;99.90
39095;DHT22;24840;47.508;19.376;2023-02-15T04:26:13;-3.70;99.90
39095;DHT22;24840;47.508;19.376;2023-02-15T04:28:38;-3.70;99.90
39095;DHT22;24840;47.508;19.376;2023-02-15T04:31:04;-3.80;99.90
39095;DHT22;24840;47.508;19.376;2023-02-15T04:33:30;-3.70;99.90
39095;DHT22;24840;47.508;19.376;2023-02-15T04:35:55;-3.80;99.90
39095;DHT22;24840;47.508;19.376;2023-02-15T04:38:22;-3.80;99.90
39095;DHT22;24840;47.508;19.376;2023-02-15T04:40:51;-3.80;99.90
39095;DHT22;24840;47.508;19.376;2023-02-15T04:43:18;-3.90;99.90
39095;DHT22;24840;47.508;19.376;2023-02-15T04:45:49;-3.90;99.90
39095;DHT22;24840;47.508;19.376;2023-02-15T04:48:16;-3.90;99.90
39095;DHT22;24840;47.508;19.376;2023-02-15T04:50:42;-3.90;99.90
39095;DHT22;24840;47.508;19.376;2023-02-15T04:53:07;-3.80;99.90
39095;DHT22;24840;47.508;19.376;2023-02-15T04:55:34;-3.90;99.90
39095;DHT22;24840;47.508;19.376;2023-02-15T04:57:59;-3.90;99.90
39095;DHT22;24840;47.508;19.376;2023-02-15T05:00:25;-4.10;99.90
39095;DHT22;24840;47.508;19.376;2023-02-15T05:02:52;-4.10;99.90
39095;DHT22;24840;47.508;19.376;2023-02-15T05:05:18;-4.10;99.90
39095;DHT22;24840;47.508;19.376;2023-02-15T05:07:44;-3.90;99.90
39095;DHT22;24840;47.508;19.376;2023-02-15T05:10:10;-3.90;99.90
39095;DHT22;24840;47.508;19.376;2023-02-15T05:12:36;-4.00;99.90
39095;DHT22;24840;47.508;19.376;2023-02-15T05:15:02;-3.90;99.90
39095;DHT22;24840;47.508;19.376;2023-02-15T05:17:28;-3.90;99.90
39095;DHT22;24840;47.508;19.376;2023-02-15T05:19:53;-3.90;99.90
39095;DHT22;24840;47.508;19.376;2023-02-15T05:22:19;-3.90;99.90
39095;DHT22;24840;47.508;19.376;2023-02-15T05:24:45;-3.90;99.90
39095;DHT22;24840;47.508;19.376;2023-02-15T05:27:29;-4.00;99.90
39095;DHT22;24840;47.508;19.376;2023-02-15T05:30:14;-4.00;99.90
39095;DHT22;24840;47.508;19.376;2023-02-15T05:32:39;-4.00;99.90
39095;DHT22;24840;47.508;19.376;2023-02-15T05:35:06;-4.00;99.90
39095;DHT22;24840;47.508;19.376;2023-02-15T05:37:33;-3.90;99.90
39095;DHT22;24840;47.508;19.376;2023-02-15T05:39:58;-4.00;99.90
39095;DHT22;24840;47.508;19.376;2023-02-15T05:42:24;-4.10;99.90
39095;DHT22;24840;47.508;19.376;2023-02-15T05:44:50;-4.00;99.90
39095;DHT22;24840;47.508;19.376;2023-02-15T05:47:16;-4.00;99.90
39095;DHT22;24840;47.508;19.376;2023-02-15T05:49:41;-4.00;99.90
39095;DHT22;24840;47.508;19.376;2023-02-15T05:52:07;-3.90;99.90
39095;DHT22;24840;47.508;19.376;2023-02-15T05:54:33;-4.00;99.90
39095;DHT22;24840;47.508;19.376;2023-02-15T05:56:59;-4.00;99.90
39095;DHT22;24840;47.508;19.376;2023-02-15T05:59:25;-4.00;99.90
39095;DHT22;24840;47.508;19.376;2023-02-15T06:01:50;-4.00;99.90
39095;DHT22;24840;47.508;19.376;2023-02-15T06:04:16;-3.90;99.90
39095;DHT22;24840;47.508;19.376;2023-02-15T06:06:42;-3.90;99.90
39095;DHT22;24840;47.508;19.376;2023-02-15T06:09:08;-4.00;99.90
39095;DHT22;24840;47.508;19.376;2023-02-15T06:11:33;-4.00;99.90
39095;DHT22;24840;47.508;19.376;2023-02-15T06:13:59;-4.10;99.90
39095;DHT22;24840;47.508;19.376;2023-02-15T06:16:25;-4.00;99.90
39095;DHT22;24840;47.508;19.376;2023-02-15T06:18:50;-4.00;99.90
39095;DHT22;24840;47.508;19.376;2023-02-15T06:21:16;-3.90;99.90
39095;DHT22;24840;47.508;19.376;2023-02-15T06:23:42;-3.90;99.90
39095;DHT22;24840;47.508;19.376;2023-02-15T06:26:08;-3.90;99.90
39095;DHT22;24840;47.508;19.376;2023-02-15T06:28:34;-3.90;99.90
39095;DHT22;24840;47.508;19.376;2023-02-15T06:31:00;-4.00;99.90
39095;DHT22;24840;47.508;19.376;2023-02-15T06:33:26;-3.90;99.90
39095;DHT22;24840;47.508;19.376;2023-02-15T06:35:51;-3.80;99.90
39095;DHT22;24840;47.508;19.376;2023-02-15T06:38:17;-3.80;99.90
39095;DHT22;24840;47.508;19.376;2023-02-15T06:40:43;-3.70;99.90
39095;DHT22;24840;47.508;19.376;2023-02-15T06:43:09;-3.70;99.90
39095;DHT22;24840;47.508;19.376;2023-02-15T06:45:35;-3.70;99.90
39095;DHT22;24840;47.508;19.376;2023-02-15T06:48:00;-3.70;99.90
39095;DHT22;24840;47.508;19.376;2023-02-15T06:50:26;-3.70;99.90
39095;DHT22;24840;47.508;19.376;2023-02-15T06:52:56;-3.60;99.90
39095;DHT22;24840;47.508;19.376;2023-02-15T06:55:22;-3.60;99.90
39095;DHT22;24840;47.508;19.376;2023-02-15T06:57:48;-3.50;99.90
39095;DHT22;24840;47.508;19.376;2023-02-15T07:00:14;-3.50;99.90
39095;DHT22;24840;47.508;19.376;2023-02-15T07:02:40;-3.40;99.90
39095;DHT22;24840;47.508;19.376;2023-02-15T07:05:06;-3.30;99.90
39095;DHT22;24840;47.508;19.376;2023-02-15T07:07:31;-3.30;99.90
39095;DHT22;24840;47.508;19.376;2023-02-15T07:09:57;-3.20;99.90
39095;DHT22;24840;47.508;19.376;2023-02-15T07:12:23;-3.10;99.90
39095;DHT22;24840;47.508;19.376;2023-02-15T07:15:11;-3.00;99.90
39095;DHT22;24840;47.508;19.376;2023-02-15T07:17:37;-2.90;99.90
39095;DHT22;24840;47.508;19.376;2023-02-15T07:20:06;-2.70;99.90
39095;DHT22;24840;47.508;19.376;2023-02-15T07:22:33;-2.50;99.90
39095;DHT22;24840;47.508;19.376;2023-02-15T07:25:02;-2.30;99.90
39095;DHT22;24840;47.508;19.376;2023-02-15T07:27:29;-2.10;99.90
39095;DHT22;24840;47.508;19.376;2023-02-15T07:29:55;-2.00;99.90
39095;DHT22;24840;47.508;19.376;2023-02-15T07:32:21;-1.70;99.90
39095;DHT22;24840;47.508;19.376;2023-02-15T07:34:46;-1.40;99.90
39095;DHT22;24840;47.508;19.376;2023-02-15T07:37:12;-1.10;99.90
39095;DHT22;24840;47.508;19.376;2023-02-15T07:39:38;-0.80;99.90
39095;DHT22;24840;47.508;19.376;2023-02-15T07:42:04;-0.50;99.90
39095;DHT22;24840;47.508;19.376;2023-02-15T07:44:30;0.00;99.90
39095;DHT22;24840;47.508;19.376;2023-02-15T07:46:56;0.10;99.90
39095;DHT22;24840;47.508;19.376;2023-02-15T07:49:21;0.40;99.90
39095;DHT22;24840;47.508;19.376;2023-02-15T07:51:47;0.60;99.90
39095;DHT22;24840;47.508;19.376;2023-02-15T07:54:13;1.00;99.90
39095;DHT22;24840;47.508;19.376;2023-02-15T07:56:39;1.30;99.90
39095;DHT22;24840;47.508;19.376;2023-02-15T07:59:05;1.50;99.90
39095;DHT22;24840;47.508;19.376;2023-02-15T08:01:35;1.80;99.90
39095;DHT22;24840;47.508;19.376;2023-02-15T08:04:03;2.00;99.90
39095;DHT22;24840;47.508;19.376;2023-02-15T08:06:32;2.20;99.90
39095;DHT22;24840;47.508;19.376;2023-02-15T08:08:59;2.50;99.90
39095;DHT22;24840;47.508;19.376;2023-02-15T08:11:27;2.70;99.90
39095;DHT22;24840;47.508;19.376;2023-02-15T08:16:43;3.10;99.90
39095;DHT22;24840;47.508;19.376;2023-02-15T08:22:07;3.70;99.90
39095;DHT22;24840;47.508;19.376;2023-02-15T08:24:33;4.10;99.90
39095;DHT22;24840;47.508;19.376;2023-02-15T08:26:59;4.70;99.90
39095;DHT22;24840;47.508;19.376;2023-02-15T08:29:27;5.50;99.90
39095;DHT22;24840;47.508;19.376;2023-02-15T08:31:59;5.10;99.90
39095;DHT22;24840;47.508;19.376;2023-02-15T08:34:28;5.50;99.90
39095;DHT22;24840;47.508;19.376;2023-02-15T08:36:55;5.90;99.90
39095;DHT22;24840;47.508;19.376;2023-02-15T08:39:21;5.80;99.90
39095;DHT22;24840;47.508;19.376;2023-02-15T08:41:47;6.10;99.90
39095;DHT22;24840;47.508;19.376;2023-02-15T08:44:15;6.60;99.90
39095;DHT22;24840;47.508;19.376;2023-02-15T08:46:43;7.00;99.90
39095;DHT22;24840;47.508;19.376;2023-02-15T08:49:15;6.70;99.90
39095;DHT22;24840;47.508;19.376;2023-02-15T08:51:41;7.10;99.90
39095;DHT22;24840;47.508;19.376;2023-02-15T08:54:13;7.20;99.90
39095;DHT22;24840;47.508;19.376;2023-02-15T08:56:40;7.20;99.90
39095;DHT22;24840;47.508;19.376;2023-02-15T08:59:11;8.00;99.90
39095;DHT22;24840;47.508;19.376;2023-02-15T09:01:37;8.40;99.90
39095;DHT22;24840;47.508;19.376;2023-02-15T09:04:05;8.60;98.50
39095;DHT22;24840;47.508;19.376;2023-02-15T09:06:34;8.70;99.80
39095;DHT22;24840;47.508;19.376;2023-02-15T09:09:00;8.90;99.20
39095;DHT22;24840;47.508;19.376;2023-02-15T09:11:28;9.10;97.50
39095;DHT22;24840;47.508;19.376;2023-02-15T09:13:56;8.60;99.00
39095;DHT22;24840;47.508;19.376;2023-02-15T09:16:24;8.50;98.70
39095;DHT22;24840;47.508;19.376;2023-02-15T09:18:51;9.10;99.00
39095;DHT22;24840;47.508;19.376;2023-02-15T09:21:19;9.10;98.00
39095;DHT22;24840;47.508;19.376;2023-02-15T09:23:47;8.80;96.70
39095;DHT22;24840;47.508;19.376;2023-02-15T09:26:16;8.80;97.80
39095;DHT22;24840;47.508;19.376;2023-02-15T09:28:42;8.80;97.90
39095;DHT22;24840;47.508;19.376;2023-02-15T09:33:39;9.60;95.70
39095;DHT22;24840;47.508;19.376;2023-02-15T09:38:46;9.80;97.20
39095;DHT22;24840;47.508;19.376;2023-02-15T09:58:31;10.50;94.30
39095;DHT22;24840;47.508;19.376;2023-02-15T10:03:54;11.20;92.40
39095;DHT22;24840;47.508;19.376;2023-02-15T10:26:41;11.80;88.60
39095;DHT22;24840;47.508;19.376;2023-02-15T10:34:20;11.60;88.20
39095;DHT22;24840;47.508;19.376;2023-02-15T10:42:47;12.20;86.50
39095;DHT22;24840;47.508;19.376;2023-02-15T10:45:49;12.00;87.80
39095;DHT22;24840;47.508;19.376;2023-02-15T10:51:08;12.60;87.00
39095;DHT22;24840;47.508;19.376;2023-02-15T10:53:59;12.60;83.80
39095;DHT22;24840;47.508;19.376;2023-02-15T10:56:32;12.50;82.50
39095;DHT22;24840;47.508;19.376;2023-02-15T10:59:23;12.50;84.10
39095;DHT22;24840;47.508;19.376;2023-02-15T11:07:47;13.10;81.50
39095;DHT22;24840;47.508;19.376;2023-02-15T11:12:42;13.30;82.10
39095;DHT22;24840;47.508;19.376;2023-02-15T11:15:36;13.70;80.90
39095;DHT22;24840;47.508;19.376;2023-02-15T11:23:39;14.50;79.00
39095;DHT22;24840;47.508;19.376;2023-02-15T11:26:15;13.90;79.60
39095;DHT22;24840;47.508;19.376;2023-02-15T11:28:51;13.50;78.70
39095;DHT22;24840;47.508;19.376;2023-02-15T11:31:22;13.40;81.00
39095;DHT22;24840;47.508;19.376;2023-02-15T11:33:59;14.20;79.80
39095;DHT22;24840;47.508;19.376;2023-02-15T11:36:31;14.50;78.20
39095;DHT22;24840;47.508;19.376;2023-02-15T11:39:02;15.10;79.10
39095;DHT22;24840;47.508;19.376;2023-02-15T11:41:33;14.70;73.30
39095;DHT22;24840;47.508;19.376;2023-02-15T11:44:04;14.90;75.50
39095;DHT22;24840;47.508;19.376;2023-02-15T11:46:31;14.40;75.00
39095;DHT22;24840;47.508;19.376;2023-02-15T11:48:56;13.90;74.70
39095;DHT22;24840;47.508;19.376;2023-02-15T11:51:24;14.40;78.40
39095;DHT22;24840;47.508;19.376;2023-02-15T11:53:51;15.40;75.10
39095;DHT22;24840;47.508;19.376;2023-02-15T11:56:22;14.80;74.90
39095;DHT22;24840;47.508;19.376;2023-02-15T11:58:59;14.00;75.90
39095;DHT22;24840;47.508;19.376;2023-02-15T12:01:44;13.50;75.90
39095;DHT22;24840;47.508;19.376;2023-02-15T12:04:36;13.80;75.70
39095;DHT22;24840;47.508;19.376;2023-02-15T12:07:24;14.30;74.70
39095;DHT22;24840;47.508;19.376;2023-02-15T12:12:39;14.60;75.80
39095;DHT22;24840;47.508;19.376;2023-02-15T12:15:10;15.30;70.80
39095;DHT22;24840;47.508;19.376;2023-02-15T12:17:49;14.70;72.40
39095;DHT22;24840;47.508;19.376;2023-02-15T12:22:53;14.70;72.90
39095;DHT22;24840;47.508;19.376;2023-02-15T12:25:26;14.10;73.50
39095;DHT22;24840;47.508;19.376;2023-02-15T12:27:55;13.90;72.90
39095;DHT22;24840;47.508;19.376;2023-02-15T12:30:35;13.50;74.50
39095;DHT22;24840;47.508;19.376;2023-02-15T12:33:17;13.60;73.10
39095;DHT22;24840;47.508;19.376;2023-02-15T12:35:47;14.20;73.20
39095;DHT22;24840;47.508;19.376;2023-02-15T12:38:24;15.10;72.20
39095;DHT22;24840;47.508;19.376;2023-02-15T12:43:45;14.80;72.80
39095;DHT22;24840;47.508;19.376;2023-02-15T12:46:24;15.60;69.50
39095;DHT22;24840;47.508;19.376;2023-02-15T12:51:49;15.00;69.60
39095;DHT22;24840;47.508;19.376;2023-02-15T12:56:52;14.30;67.60
39095;DHT22;24840;47.508;19.376;2023-02-15T12:59:18;13.80;71.80
39095;DHT22;24840;47.508;19.376;2023-02-15T13:01:48;15.10;68.90
39095;DHT22;24840;47.508;19.376;2023-02-15T13:04:24;15.30;68.80
39095;DHT22;24840;47.508;19.376;2023-02-15T13:06:53;15.40;69.30
39095;DHT22;24840;47.508;19.376;2023-02-15T13:11:49;15.30;69.10
39095;DHT22;24840;47.508;19.376;2023-02-15T13:14:33;14.10;68.60
39095;DHT22;24840;47.508;19.376;2023-02-15T13:17:02;13.20;71.20
39095;DHT22;24840;47.508;19.376;2023-02-15T13:19:37;13.90;71.20
39095;DHT22;24840;47.508;19.376;2023-02-15T13:22:32;15.00;68.10
39095;DHT22;24840;47.508;19.376;2023-02-15T13:25:04;13.70;70.70
39095;DHT22;24840;47.508;19.376;2023-02-15T13:27:38;13.90;69.30
39095;DHT22;24840;47.508;19.376;2023-02-15T13:30:27;14.70;69.90
39095;DHT22;24840;47.508;19.376;2023-02-15T13:33:10;13.90;69.90
39095;DHT22;24840;47.508;19.376;2023-02-15T13:36:01;14.00;68.10
39095;DHT22;24840;47.508;19.376;2023-02-15T13:41:09;15.00;69.50
39095;DHT22;24840;47.508;19.376;2023-02-15T13:44:03;13.80;69.40
39095;DHT22;24840;47.508;19.376;2023-02-15T14:08:01;13.40;72.00
39095;DHT22;24840;47.508;19.376;2023-02-15T14:13:29;13.50;72.10
39095;DHT22;24840;47.508;19.376;2023-02-15T14:18:55;13.20;71.30
39095;DHT22;24840;47.508;19.376;2023-02-15T14:30:19;13.20;70.20
39095;DHT22;24840;47.508;19.376;2023-02-15T14:32:49;12.00;72.80
39095;DHT22;24840;47.508;19.376;2023-02-15T14:35:26;12.30;74.00
39095;DHT22;24840;47.508;19.376;2023-02-15T14:38:04;12.20;74.30
39095;DHT22;24840;47.508;19.376;2023-02-15T14:48:45;11.80;75.10
39095;DHT22;24840;47.508;19.376;2023-02-15T15:02:43;11.20;77.00
39095;DHT22;24840;47.508;19.376;2023-02-15T15:05:34;11.20;77.80
39095;DHT22;24840;47.508;19.376;2023-02-15T15:08:02;11.20;77.40
39095;DHT22;24840;47.508;19.376;2023-02-15T15:18:56;10.80;79.00
39095;DHT22;24840;47.508;19.376;2023-02-15T15:41:19;8.30;87.00
39095;DHT22;24840;47.508;19.376;2023-02-15T15:44:30;8.10;87.90
39095;DHT22;24840;47.508;19.376;2023-02-15T15:49:20;7.30;90.00
39095;DHT22;24840;47.508;19.376;2023-02-15T15:51:47;7.10;90.40
39095;DHT22;24840;47.508;19.376;2023-02-15T15:54:19;7.00;90.60
39095;DHT22;24840;47.508;19.376;2023-02-15T15:56:53;7.20;90.30
39095;DHT22;24840;47.508;19.376;2023-02-15T15:59:26;6.90;90.70
39095;DHT22;24840;47.508;19.376;2023-02-15T16:01:53;6.60;91.00
39095;DHT22;24840;47.508;19.376;2023-02-15T16:04:33;6.40;91.40
39095;DHT22;24840;47.508;19.376;2023-02-15T16:09:59;6.10;91.80
39095;DHT22;24840;47.508;19.376;2023-02-15T16:12:28;5.80;92.20
39095;DHT22;24840;47.508;19.376;2023-02-15T16:14:54;5.80;92.30
39095;DHT22;24840;47.508;19.376;2023-02-15T16:17:30;5.50;92.40
39095;DHT22;24840;47.508;19.376;2023-02-15T16:20:11;5.50;92.40
39095;DHT22;24840;47.508;19.376;2023-02-15T16:22:40;5.40;92.60
39095;DHT22;24840;47.508;19.376;2023-02-15T16:27:38;5.10;92.60
39095;DHT22;24840;47.508;19.376;2023-02-15T16:32:47;4.70;93.00
39095;DHT22;24840;47.508;19.376;2023-02-15T16:35:16;4.40;93.90
39095;DHT22;24840;47.508;19.376;2023-02-15T16:37:42;4.30;93.80
39095;DHT22;24840;47.508;19.376;2023-02-15T16:42:55;4.00;94.70
39095;DHT22;24840;47.508;19.376;2023-02-15T16:45:24;3.80;95.20
39095;DHT22;24840;47.508;19.376;2023-02-15T16:47:55;3.80;94.90
39095;DHT22;24840;47.508;19.376;2023-02-15T16:50:48;3.60;95.50
39095;DHT22;24840;47.508;19.376;2023-02-15T16:53:20;3.40;95.40
39095;DHT22;24840;47.508;19.376;2023-02-15T16:55:53;3.20;96.20
39095;DHT22;24840;47.508;19.376;2023-02-15T17:00:59;3.10;96.20
39095;DHT22;24840;47.508;19.376;2023-02-15T17:03:26;3.00;96.30
39095;DHT22;24840;47.508;19.376;2023-02-15T17:06:00;3.10;96.70
39095;DHT22;24840;47.508;19.376;2023-02-15T17:08:33;3.00;96.60
39095;DHT22;24840;47.508;19.376;2023-02-15T17:13:26;2.80;96.70
39095;DHT22;24840;47.508;19.376;2023-02-15T17:18:32;2.70;97.00
39095;DHT22;24840;47.508;19.376;2023-02-15T17:23:43;2.50;97.40
39095;DHT22;24840;47.508;19.376;2023-02-15T17:26:22;2.50;97.90
39095;DHT22;24840;47.508;19.376;2023-02-15T17:28:54;2.60;97.80
39095;DHT22;24840;47.508;19.376;2023-02-15T17:31:47;2.70;97.30
39095;DHT22;24840;47.508;19.376;2023-02-15T17:40:26;2.30;98.30
39095;DHT22;24840;47.508;19.376;2023-02-15T17:42:53;2.30;98.20
39095;DHT22;24840;47.508;19.376;2023-02-15T17:45:42;2.30;98.50
39095;DHT22;24840;47.508;19.376;2023-02-15T17:50:44;2.20;98.20
39095;DHT22;24840;47.508;19.376;2023-02-15T17:53:10;2.00;98.60
39095;DHT22;24840;47.508;19.376;2023-02-15T17:55:36;2.00;98.90
39095;DHT22;24840;47.508;19.376;2023-02-15T17:58:10;2.00;98.70
39095;DHT22;24840;47.508;19.376;2023-02-15T18:00:41;1.90;98.80
39095;DHT22;24840;47.508;19.376;2023-02-15T18:03:43;2.00;98.90
39095;DHT22;24840;47.508;19.376;2023-02-15T18:06:28;2.10;98.50
39095;DHT22;24840;47.508;19.376;2023-02-15T18:09:15;2.10;98.80
39095;DHT22;24840;47.508;19.376;2023-02-15T18:11:59;2.00;99.00
39095;DHT22;24840;47.508;19.376;2023-02-15T18:14:25;1.80;99.20
39095;DHT22;24840;47.508;19.376;2023-02-15T18:16:54;1.60;99.50
39095;DHT22;24840;47.508;19.376;2023-02-15T18:19:25;1.60;99.70
39095;DHT22;24840;47.508;19.376;2023-02-15T18:21:52;1.50;99.90
39095;DHT22;24840;47.508;19.376;2023-02-15T18:24:20;1.50;99.90
39095;DHT22;24840;47.508;19.376;2023-02-15T18:26:48;1.50;99.90
39095;DHT22;24840;47.508;19.376;2023-02-15T18:29:14;1.50;99.90
39095;DHT22;24840;47.508;19.376;2023-02-15T18:31:41;1.50;99.90
39095;DHT22;24840;47.508;19.376;2023-02-15T18:34:20;1.50;99.90
39095;DHT22;24840;47.508;19.376;2023-02-15T18:36:47;1.40;99.90
39095;DHT22;24840;47.508;19.376;2023-02-15T18:41:48;1.30;99.90
39095;DHT22;24840;47.508;19.376;2023-02-15T18:44:13;1.20;99.90
39095;DHT22;24840;47.508;19.376;2023-02-15T18:46:40;1.20;99.90
39095;DHT22;24840;47.508;19.376;2023-02-15T18:49:11;1.10;99.90
39095;DHT22;24840;47.508;19.376;2023-02-15T18:51:37;1.10;99.90
39095;DHT22;24840;47.508;19.376;2023-02-15T18:54:10;1.00;99.90
39095;DHT22;24840;47.508;19.376;2023-02-15T18:56:40;1.10;99.90
39095;DHT22;24840;47.508;19.376;2023-02-15T18:59:10;1.10;99.90
39095;DHT22;24840;47.508;19.376;2023-02-15T19:01:36;1.00;99.90
39095;DHT22;24840;47.508;19.376;2023-02-15T19:04:03;1.10;99.90
39095;DHT22;24840;47.508;19.376;2023-02-15T19:06:28;0.90;99.90
39095;DHT22;24840;47.508;19.376;2023-02-15T19:08:54;0.80;99.90
39095;DHT22;24840;47.508;19.376;2023-02-15T19:11:21;0.80;99.90
39095;DHT22;24840;47.508;19.376;2023-02-15T19:13:49;0.80;99.90
39095;DHT22;24840;47.508;19.376;2023-02-15T19:16:29;0.80;99.90
39095;DHT22;24840;47.508;19.376;2023-02-15T19:18:55;0.70;99.90
39095;DHT22;24840;47.508;19.376;2023-02-15T19:21:21;0.60;99.90
39095;DHT22;24840;47.508;19.376;2023-02-15T19:23:55;0.50;99.90
39095;DHT22;24840;47.508;19.376;2023-02-15T19:26:23;0.50;99.90
39095;DHT22;24840;47.508;19.376;2023-02-15T19:28:49;0.40;99.90
39095;DHT22;24840;47.508;19.376;2023-02-15T19:31:15;0.40;99.90
39095;DHT22;24840;47.508;19.376;2023-02-15T19:33:43;0.40;99.90
39095;DHT22;24840;47.508;19.376;2023-02-15T19:36:18;0.40;99.90
39095;DHT22;24840;47.508;19.376;2023-02-15T19:38:49;0.40;99.90
39095;DHT22;24840;47.508;19.376;2023-02-15T19:41:32;0.40;99.90
39095;DHT22;24840;47.508;19.376;2023-02-15T19:43:59;0.30;99.90
39095;DHT22;24840;47.508;19.376;2023-02-15T19:46:25;0.30;99.90